SBI5220 UNNT-UNOO
Flight info
| Callsign | SBI5220 |
|---|---|
| Flight time | 1h 7m |
| Altitude | 34000 |
| Route | OGAMA A308 OSNAB G828 SZ A487 URUKI A844 RUMOD |
| Aircraft | A320/M-V/N |
Departure
| Time | 2026-04-21 08:45 |
|---|---|
| Airport | Novosibirsk Tolmachevo Airport (UNNT) |
Arrival
| Time | 2026-04-21 09:53 |
|---|---|
| Airport | Omsk Central Airport (UNOO) |
| Time | Latitude | Longitude | Altitude | Speed | Heading |
|---|---|---|---|---|---|
| 2026-04-21 08:21 | 55.01161 | 82.67303 | 373 ft | 0 kts | 171° |
| 2026-04-21 08:40 | 55.01160 | 82.67303 | 373 ft | 1 kts | 171° |
| 2026-04-21 08:40 | 55.01146 | 82.67307 | 373 ft | 2 kts | 171° |
| 2026-04-21 08:40 | 55.01114 | 82.67345 | 373 ft | 7 kts | 119° |
| 2026-04-21 08:40 | 55.01119 | 82.67445 | 373 ft | 13 kts | 60° |
| 2026-04-21 08:41 | 55.01202 | 82.67546 | 373 ft | 15 kts | 31° |
| 2026-04-21 08:41 | 55.01296 | 82.67643 | 373 ft | 17 kts | 31° |
| 2026-04-21 08:41 | 55.01328 | 82.67676 | 373 ft | 0 kts | 31° |
| 2026-04-21 08:42 | 55.01332 | 82.67680 | 373 ft | 3 kts | 31° |
| 2026-04-21 08:43 | 55.01371 | 82.67721 | 372 ft | 8 kts | 31° |
| 2026-04-21 08:43 | 55.01425 | 82.67772 | 372 ft | 10 kts | 19° |
| 2026-04-21 08:43 | 55.01482 | 82.67720 | 372 ft | 10 kts | 281° |
| 2026-04-21 08:43 | 55.01481 | 82.67677 | 372 ft | 0 kts | 263° |
| 2026-04-21 08:44 | 55.01476 | 82.67608 | 371 ft | 19 kts | 262° |
| 2026-04-21 08:45 | 55.01412 | 82.66904 | 375 ft | 102 kts | 261° |
| 2026-04-21 08:45 | 55.01262 | 82.65231 | 377 ft | 172 kts | 261° |
| 2026-04-21 08:45 | 55.01068 | 82.63052 | 1039 ft | 184 kts | 263° |
| 2026-04-21 08:45 | 55.00866 | 82.60877 | 1851 ft | 187 kts | 264° |
| 2026-04-21 08:46 | 55.00656 | 82.58523 | 2281 ft | 206 kts | 263° |
| 2026-04-21 08:46 | 55.00429 | 82.55969 | 2966 ft | 214 kts | 262° |
| 2026-04-21 08:46 | 55.00245 | 82.53462 | 4032 ft | 210 kts | 270° |
| 2026-04-21 08:46 | 55.00742 | 82.50957 | 4445 ft | 236 kts | 304° |
| 2026-04-21 08:47 | 55.01909 | 82.48765 | 5076 ft | 253 kts | 315° |
| 2026-04-21 08:47 | 55.03263 | 82.46758 | 5773 ft | 260 kts | 317° |
| 2026-04-21 08:47 | 55.04667 | 82.44765 | 5972 ft | 259 kts | 317° |
| 2026-04-21 08:47 | 55.06054 | 82.42756 | 6008 ft | 258 kts | 316° |
| 2026-04-21 08:48 | 55.07407 | 82.40722 | 6015 ft | 257 kts | 316° |
| 2026-04-21 08:48 | 55.08744 | 82.38647 | 6010 ft | 257 kts | 315° |
| 2026-04-21 08:48 | 55.10069 | 82.36542 | 6013 ft | 257 kts | 314° |
| 2026-04-21 08:48 | 55.11381 | 82.34429 | 6002 ft | 257 kts | 314° |
| 2026-04-21 08:49 | 55.12688 | 82.32307 | 6015 ft | 257 kts | 314° |
| 2026-04-21 08:49 | 55.13991 | 82.30182 | 6016 ft | 257 kts | 314° |
| 2026-04-21 08:49 | 55.15296 | 82.28047 | 6012 ft | 256 kts | 314° |
| 2026-04-21 08:49 | 55.16580 | 82.25938 | 6025 ft | 256 kts | 313° |
| 2026-04-21 08:50 | 55.17879 | 82.23803 | 6020 ft | 256 kts | 314° |
| 2026-04-21 08:50 | 55.19176 | 82.21678 | 6024 ft | 256 kts | 314° |
| 2026-04-21 08:50 | 55.20476 | 82.19550 | 6021 ft | 256 kts | 314° |
| 2026-04-21 08:50 | 55.21630 | 82.17198 | 6022 ft | 253 kts | 300° |
| 2026-04-21 08:51 | 55.22408 | 82.14394 | 6526 ft | 258 kts | 291° |
| 2026-04-21 08:51 | 55.23104 | 82.11503 | 6951 ft | 257 kts | 291° |
| 2026-04-21 08:51 | 55.23815 | 82.08638 | 7038 ft | 255 kts | 292° |
| 2026-04-21 08:51 | 55.24525 | 82.05795 | 7048 ft | 254 kts | 292° |
| 2026-04-21 08:52 | 55.25233 | 82.02954 | 7049 ft | 254 kts | 292° |
| 2026-04-21 08:52 | 55.25935 | 82.00122 | 7049 ft | 254 kts | 291° |
| 2026-04-21 08:52 | 55.26636 | 81.97283 | 7050 ft | 254 kts | 291° |
| 2026-04-21 08:52 | 55.27334 | 81.94439 | 7052 ft | 254 kts | 291° |
| 2026-04-21 08:53 | 55.28033 | 81.91596 | 7049 ft | 254 kts | 291° |
| 2026-04-21 08:53 | 55.28733 | 81.88751 | 7051 ft | 254 kts | 291° |
| 2026-04-21 08:53 | 55.29430 | 81.85914 | 7051 ft | 254 kts | 291° |
| 2026-04-21 08:53 | 55.30128 | 81.83062 | 7051 ft | 254 kts | 291° |
| 2026-04-21 08:54 | 55.30825 | 81.80206 | 7053 ft | 254 kts | 291° |
| 2026-04-21 08:54 | 55.31504 | 81.77414 | 7052 ft | 254 kts | 291° |
| 2026-04-21 08:54 | 55.32200 | 81.74547 | 7052 ft | 254 kts | 291° |
| 2026-04-21 08:54 | 55.32892 | 81.71694 | 7055 ft | 254 kts | 291° |
| 2026-04-21 08:55 | 55.33485 | 81.69090 | 7065 ft | 254 kts | 290° |
| 2026-04-21 08:55 | 55.34140 | 81.66352 | 7049 ft | 233 kts | 291° |
| 2026-04-21 08:55 | 55.34814 | 81.63608 | 7054 ft | 251 kts | 291° |
| 2026-04-21 08:55 | 55.35514 | 81.60770 | 7053 ft | 254 kts | 291° |
| 2026-04-21 08:56 | 55.36214 | 81.57914 | 7059 ft | 256 kts | 291° |
| 2026-04-21 08:56 | 55.36908 | 81.55054 | 7054 ft | 254 kts | 291° |
| 2026-04-21 08:56 | 55.37599 | 81.52192 | 7056 ft | 254 kts | 291° |
| 2026-04-21 08:56 | 55.38286 | 81.49339 | 7058 ft | 254 kts | 291° |
| 2026-04-21 08:57 | 55.38977 | 81.46470 | 7079 ft | 256 kts | 291° |
| 2026-04-21 08:57 | 55.39682 | 81.43550 | 7842 ft | 259 kts | 291° |
| 2026-04-21 08:57 | 55.40374 | 81.40684 | 8826 ft | 258 kts | 291° |
| 2026-04-21 08:57 | 55.41087 | 81.37726 | 9784 ft | 260 kts | 291° |
| 2026-04-21 08:58 | 55.41800 | 81.34754 | 10467 ft | 271 kts | 291° |
| 2026-04-21 08:58 | 55.42552 | 81.31606 | 10738 ft | 294 kts | 291° |
| 2026-04-21 08:58 | 55.43376 | 81.28158 | 10937 ft | 318 kts | 291° |
| 2026-04-21 08:58 | 55.44254 | 81.24476 | 11328 ft | 332 kts | 291° |
| 2026-04-21 08:59 | 55.45156 | 81.20689 | 12031 ft | 336 kts | 291° |
| 2026-04-21 08:59 | 55.46064 | 81.16881 | 12789 ft | 339 kts | 291° |
| 2026-04-21 08:59 | 55.46929 | 81.13009 | 13554 ft | 341 kts | 286° |
| 2026-04-21 08:59 | 55.47518 | 81.08957 | 14259 ft | 342 kts | 283° |
| 2026-04-21 09:00 | 55.48086 | 81.04855 | 14916 ft | 345 kts | 283° |
| 2026-04-21 09:00 | 55.48657 | 81.00733 | 15566 ft | 347 kts | 283° |
| 2026-04-21 09:00 | 55.49231 | 80.96596 | 16207 ft | 350 kts | 283° |
| 2026-04-21 09:00 | 55.49810 | 80.92409 | 16816 ft | 352 kts | 283° |
| 2026-04-21 09:01 | 55.50390 | 80.88193 | 17423 ft | 355 kts | 283° |
| 2026-04-21 09:01 | 55.50970 | 80.83956 | 18027 ft | 358 kts | 283° |
| 2026-04-21 09:01 | 55.51356 | 80.81119 | 18413 ft | 359 kts | 283° |
| 2026-04-21 09:01 | 55.51939 | 80.76823 | 18906 ft | 362 kts | 283° |
| 2026-04-21 09:02 | 55.52525 | 80.72489 | 19428 ft | 364 kts | 283° |
| 2026-04-21 09:02 | 55.53116 | 80.68124 | 19937 ft | 366 kts | 283° |
| 2026-04-21 09:02 | 55.53706 | 80.63753 | 20456 ft | 368 kts | 283° |
| 2026-04-21 09:03 | 55.54896 | 80.54907 | 21454 ft | 372 kts | 283° |
| 2026-04-21 09:03 | 55.55492 | 80.50455 | 21942 ft | 374 kts | 283° |
| 2026-04-21 09:03 | 55.56089 | 80.45960 | 22412 ft | 376 kts | 283° |
| 2026-04-21 09:03 | 55.56688 | 80.41454 | 22880 ft | 378 kts | 283° |
| 2026-04-21 09:04 | 55.57294 | 80.36905 | 23325 ft | 380 kts | 283° |
| 2026-04-21 09:04 | 55.57899 | 80.32347 | 23737 ft | 382 kts | 283° |
| 2026-04-21 09:04 | 55.58501 | 80.27768 | 24125 ft | 384 kts | 283° |
| 2026-04-21 09:04 | 55.59104 | 80.23145 | 24509 ft | 385 kts | 283° |
| 2026-04-21 09:05 | 55.59706 | 80.18529 | 24886 ft | 387 kts | 283° |
| 2026-04-21 09:05 | 55.60316 | 80.13873 | 25262 ft | 389 kts | 283° |
| 2026-04-21 09:05 | 55.60926 | 80.09211 | 25612 ft | 390 kts | 283° |
| 2026-04-21 09:05 | 55.61534 | 80.04532 | 25960 ft | 392 kts | 283° |
| 2026-04-21 09:06 | 55.62145 | 79.99827 | 26304 ft | 393 kts | 283° |
| 2026-04-21 09:06 | 55.62716 | 79.95145 | 26616 ft | 395 kts | 279° |
| 2026-04-21 09:06 | 55.62910 | 79.90289 | 26930 ft | 398 kts | 270° |
| 2026-04-21 09:06 | 55.62606 | 79.85394 | 27235 ft | 403 kts | 261° |
| 2026-04-21 09:07 | 55.61857 | 79.80579 | 27536 ft | 407 kts | 257° |
| 2026-04-21 09:07 | 55.61045 | 79.75781 | 27834 ft | 408 kts | 257° |
| 2026-04-21 09:07 | 55.60245 | 79.70974 | 28252 ft | 407 kts | 257° |
| 2026-04-21 09:07 | 55.59448 | 79.66182 | 28712 ft | 405 kts | 257° |
| 2026-04-21 09:08 | 55.58651 | 79.61402 | 29175 ft | 404 kts | 257° |
| 2026-04-21 09:08 | 55.57853 | 79.56656 | 29616 ft | 402 kts | 257° |
| 2026-04-21 09:08 | 55.57055 | 79.51943 | 30063 ft | 401 kts | 257° |
| 2026-04-21 09:08 | 55.56250 | 79.47225 | 30449 ft | 399 kts | 257° |
| 2026-04-21 09:09 | 55.55449 | 79.42551 | 30857 ft | 397 kts | 257° |
| 2026-04-21 09:09 | 55.54650 | 79.37885 | 31264 ft | 395 kts | 257° |
| 2026-04-21 09:09 | 55.53862 | 79.33268 | 31673 ft | 392 kts | 257° |
| 2026-04-21 09:09 | 55.53076 | 79.28680 | 32093 ft | 390 kts | 257° |
| 2026-04-21 09:10 | 55.52290 | 79.24104 | 32503 ft | 388 kts | 257° |
| 2026-04-21 09:10 | 55.51517 | 79.19618 | 32918 ft | 386 kts | 257° |
| 2026-04-21 09:10 | 55.50738 | 79.15115 | 33321 ft | 383 kts | 257° |
| 2026-04-21 09:10 | 55.49948 | 79.10569 | 33741 ft | 381 kts | 257° |
| 2026-04-21 09:11 | 55.49184 | 79.06178 | 34006 ft | 380 kts | 257° |
| 2026-04-21 09:11 | 55.48410 | 79.01720 | 34049 ft | 381 kts | 257° |
| 2026-04-21 09:11 | 55.46847 | 78.92792 | 34036 ft | 382 kts | 257° |
| 2026-04-21 09:12 | 55.45273 | 78.83850 | 34032 ft | 382 kts | 257° |
| 2026-04-21 09:12 | 55.43695 | 78.74920 | 34031 ft | 382 kts | 257° |
| 2026-04-21 09:13 | 55.42116 | 78.65985 | 34030 ft | 382 kts | 256° |
| 2026-04-21 09:13 | 55.40525 | 78.57069 | 34028 ft | 382 kts | 256° |
| 2026-04-21 09:14 | 55.38923 | 78.48151 | 34010 ft | 382 kts | 256° |
| 2026-04-21 09:14 | 55.37320 | 78.39256 | 34007 ft | 382 kts | 256° |
| 2026-04-21 09:15 | 55.36046 | 78.30244 | 33997 ft | 378 kts | 267° |
| 2026-04-21 09:15 | 55.36349 | 78.21134 | 33997 ft | 376 kts | 277° |
| 2026-04-21 09:16 | 55.36999 | 78.12004 | 33997 ft | 377 kts | 277° |
| 2026-04-21 09:16 | 55.37640 | 78.02874 | 34004 ft | 377 kts | 277° |
| 2026-04-21 09:17 | 55.38281 | 77.93718 | 33997 ft | 377 kts | 277° |
| 2026-04-21 09:17 | 55.38907 | 77.84568 | 33999 ft | 377 kts | 276° |
| 2026-04-21 09:18 | 55.39519 | 77.75384 | 34000 ft | 377 kts | 276° |
| 2026-04-21 09:18 | 55.40127 | 77.66213 | 34006 ft | 378 kts | 276° |
| 2026-04-21 09:19 | 55.40729 | 77.57023 | 34002 ft | 378 kts | 276° |
| 2026-04-21 09:19 | 55.41340 | 77.47845 | 33999 ft | 378 kts | 276° |
| 2026-04-21 09:20 | 55.41938 | 77.38655 | 34000 ft | 378 kts | 276° |
| 2026-04-21 09:20 | 55.42517 | 77.29446 | 33996 ft | 378 kts | 276° |
| 2026-04-21 09:21 | 55.43098 | 77.20302 | 33995 ft | 379 kts | 276° |
| 2026-04-21 09:21 | 55.43676 | 77.11024 | 33994 ft | 379 kts | 276° |
| 2026-04-21 09:22 | 55.44244 | 77.01801 | 33997 ft | 379 kts | 276° |
| 2026-04-21 09:22 | 55.44802 | 76.92618 | 33996 ft | 379 kts | 276° |
| 2026-04-21 09:23 | 55.45356 | 76.83388 | 33993 ft | 379 kts | 275° |
| 2026-04-21 09:23 | 55.45903 | 76.74138 | 33992 ft | 380 kts | 275° |
| 2026-04-21 09:24 | 55.46449 | 76.64884 | 33989 ft | 380 kts | 275° |
| 2026-04-21 09:24 | 55.46981 | 76.55620 | 33988 ft | 380 kts | 275° |
| 2026-04-21 09:25 | 55.47505 | 76.46339 | 33989 ft | 380 kts | 275° |
| 2026-04-21 09:25 | 55.48030 | 76.37048 | 33985 ft | 381 kts | 275° |
| 2026-04-21 09:26 | 55.48552 | 76.27759 | 33986 ft | 381 kts | 275° |
| 2026-04-21 09:26 | 55.49052 | 76.18461 | 33986 ft | 381 kts | 275° |
| 2026-04-21 09:27 | 55.49542 | 76.09211 | 33984 ft | 381 kts | 275° |
| 2026-04-21 09:27 | 55.50028 | 75.99893 | 33983 ft | 382 kts | 275° |
| 2026-04-21 09:28 | 55.50511 | 75.90560 | 33980 ft | 382 kts | 275° |
| 2026-04-21 09:28 | 55.50990 | 75.81213 | 33969 ft | 383 kts | 274° |
| 2026-04-21 09:29 | 55.51225 | 75.76536 | 33697 ft | 384 kts | 274° |
| 2026-04-21 09:29 | 55.51457 | 75.71822 | 33417 ft | 385 kts | 274° |
| 2026-04-21 09:29 | 55.51686 | 75.67122 | 33139 ft | 387 kts | 274° |
| 2026-04-21 09:29 | 55.51920 | 75.62381 | 32869 ft | 388 kts | 275° |
| 2026-04-21 09:30 | 55.52153 | 75.57621 | 32599 ft | 390 kts | 275° |
| 2026-04-21 09:30 | 55.52382 | 75.52863 | 32326 ft | 385 kts | 275° |
| 2026-04-21 09:30 | 55.52604 | 75.48222 | 32058 ft | 374 kts | 275° |
| 2026-04-21 09:30 | 55.52820 | 75.43694 | 31798 ft | 369 kts | 275° |
| 2026-04-21 09:31 | 55.53036 | 75.39187 | 31538 ft | 369 kts | 275° |
| 2026-04-21 09:31 | 55.53249 | 75.34664 | 31281 ft | 370 kts | 275° |
| 2026-04-21 09:31 | 55.53456 | 75.30196 | 31030 ft | 371 kts | 275° |
| 2026-04-21 09:31 | 55.53666 | 75.25650 | 30775 ft | 372 kts | 275° |
| 2026-04-21 09:32 | 55.53876 | 75.21088 | 30525 ft | 374 kts | 275° |
| 2026-04-21 09:32 | 55.54080 | 75.16492 | 30276 ft | 376 kts | 275° |
| 2026-04-21 09:32 | 55.54282 | 75.11899 | 30019 ft | 377 kts | 275° |
| 2026-04-21 09:32 | 55.54491 | 75.07269 | 29740 ft | 378 kts | 275° |
| 2026-04-21 09:33 | 55.54698 | 75.02707 | 29461 ft | 367 kts | 275° |
| 2026-04-21 09:33 | 55.54898 | 74.98261 | 29164 ft | 357 kts | 275° |
| 2026-04-21 09:33 | 55.55087 | 74.93951 | 28882 ft | 350 kts | 275° |
| 2026-04-21 09:33 | 55.55269 | 74.89684 | 28607 ft | 347 kts | 275° |
| 2026-04-21 09:34 | 55.55449 | 74.85442 | 28323 ft | 345 kts | 275° |
| 2026-04-21 09:34 | 55.55626 | 74.81216 | 28048 ft | 344 kts | 275° |
| 2026-04-21 09:34 | 55.55805 | 74.76966 | 27779 ft | 355 kts | 275° |
| 2026-04-21 09:34 | 55.55992 | 74.72494 | 27518 ft | 375 kts | 275° |
| 2026-04-21 09:35 | 55.56185 | 74.67780 | 27252 ft | 393 kts | 275° |
| 2026-04-21 09:35 | 55.56386 | 74.62852 | 26987 ft | 410 kts | 275° |
| 2026-04-21 09:35 | 55.56591 | 74.57767 | 26725 ft | 418 kts | 275° |
| 2026-04-21 09:35 | 55.56797 | 74.52628 | 26464 ft | 422 kts | 274° |
| 2026-04-21 09:36 | 55.57004 | 74.47448 | 26211 ft | 424 kts | 274° |
| 2026-04-21 09:36 | 55.57208 | 74.42308 | 25961 ft | 425 kts | 274° |
| 2026-04-21 09:36 | 55.57409 | 74.37096 | 25706 ft | 426 kts | 274° |
| 2026-04-21 09:36 | 55.57498 | 74.31843 | 25453 ft | 428 kts | 268° |
| 2026-04-21 09:37 | 55.57052 | 74.26645 | 25208 ft | 431 kts | 257° |
| 2026-04-21 09:37 | 55.56070 | 74.21634 | 24307 ft | 434 kts | 248° |
| 2026-04-21 09:37 | 55.54511 | 74.17036 | 23158 ft | 440 kts | 236° |
| 2026-04-21 09:37 | 55.52448 | 74.13086 | 21877 ft | 435 kts | 225° |
| 2026-04-21 09:38 | 55.50161 | 74.09741 | 20923 ft | 418 kts | 223° |
| 2026-04-21 09:38 | 55.47945 | 74.06489 | 20079 ft | 413 kts | 224° |
| 2026-04-21 09:38 | 55.45752 | 74.03230 | 19218 ft | 413 kts | 224° |
| 2026-04-21 09:38 | 55.43556 | 73.99946 | 18390 ft | 413 kts | 224° |
| 2026-04-21 09:39 | 55.41365 | 73.96675 | 17490 ft | 413 kts | 223° |
| 2026-04-21 09:39 | 55.39177 | 73.93422 | 16721 ft | 410 kts | 223° |
| 2026-04-21 09:39 | 55.37005 | 73.90211 | 15940 ft | 407 kts | 223° |
| 2026-04-21 09:39 | 55.34845 | 73.87030 | 15210 ft | 403 kts | 223° |
| 2026-04-21 09:40 | 55.32708 | 73.83891 | 14516 ft | 399 kts | 223° |
| 2026-04-21 09:40 | 55.30749 | 73.80511 | 13853 ft | 392 kts | 232° |
| 2026-04-21 09:40 | 55.29193 | 73.76629 | 13136 ft | 385 kts | 242° |
| 2026-04-21 09:40 | 55.27969 | 73.72495 | 12517 ft | 378 kts | 244° |
| 2026-04-21 09:41 | 55.26775 | 73.68416 | 11884 ft | 373 kts | 244° |
| 2026-04-21 09:41 | 55.25593 | 73.64404 | 11279 ft | 368 kts | 244° |
| 2026-04-21 09:41 | 55.24438 | 73.60500 | 11095 ft | 352 kts | 244° |
| 2026-04-21 09:41 | 55.23350 | 73.56824 | 10969 ft | 336 kts | 244° |
| 2026-04-21 09:42 | 55.22296 | 73.53270 | 10841 ft | 322 kts | 244° |
| 2026-04-21 09:42 | 55.21285 | 73.49868 | 10712 ft | 309 kts | 244° |
| 2026-04-21 09:42 | 55.20312 | 73.46593 | 10586 ft | 297 kts | 244° |
| 2026-04-21 09:42 | 55.19375 | 73.43437 | 10462 ft | 287 kts | 244° |
| 2026-04-21 09:43 | 55.18469 | 73.40388 | 10307 ft | 278 kts | 243° |
| 2026-04-21 09:43 | 55.17583 | 73.37405 | 10088 ft | 274 kts | 243° |
| 2026-04-21 09:43 | 55.16709 | 73.34460 | 9849 ft | 272 kts | 243° |
| 2026-04-21 09:43 | 55.15835 | 73.31535 | 9720 ft | 272 kts | 243° |
| 2026-04-21 09:44 | 55.14956 | 73.28608 | 9585 ft | 271 kts | 243° |
| 2026-04-21 09:44 | 55.14077 | 73.25689 | 9323 ft | 273 kts | 243° |
| 2026-04-21 09:44 | 55.13196 | 73.22759 | 8753 ft | 270 kts | 242° |
| 2026-04-21 09:44 | 55.12333 | 73.19875 | 8199 ft | 266 kts | 242° |
| 2026-04-21 09:45 | 55.11462 | 73.17038 | 7652 ft | 264 kts | 237° |
| 2026-04-21 09:45 | 55.10338 | 73.14548 | 7220 ft | 255 kts | 228° |
| 2026-04-21 09:45 | 55.09211 | 73.12313 | 7092 ft | 235 kts | 228° |
| 2026-04-21 09:45 | 55.08172 | 73.10237 | 6913 ft | 222 kts | 228° |
| 2026-04-21 09:46 | 55.07168 | 73.08226 | 6566 ft | 218 kts | 228° |
| 2026-04-21 09:46 | 55.06181 | 73.06250 | 6302 ft | 219 kts | 227° |
| 2026-04-21 09:46 | 55.05174 | 73.04229 | 6031 ft | 218 kts | 227° |
| 2026-04-21 09:46 | 55.04168 | 73.02314 | 5748 ft | 216 kts | 220° |
| 2026-04-21 09:47 | 55.02875 | 73.00858 | 5221 ft | 226 kts | 202° |
| 2026-04-21 09:47 | 55.01336 | 73.00190 | 4604 ft | 235 kts | 183° |
| 2026-04-21 09:47 | 54.99722 | 73.00440 | 4124 ft | 232 kts | 166° |
| 2026-04-21 09:47 | 54.98194 | 73.01083 | 3936 ft | 219 kts | 166° |
| 2026-04-21 09:48 | 54.96746 | 73.01675 | 3820 ft | 207 kts | 166° |
| 2026-04-21 09:48 | 54.95408 | 73.02220 | 3743 ft | 189 kts | 166° |
| 2026-04-21 09:48 | 54.94221 | 73.02978 | 3655 ft | 177 kts | 143° |
| 2026-04-21 09:48 | 54.93503 | 73.04600 | 3595 ft | 169 kts | 111° |
| 2026-04-21 09:49 | 54.93420 | 73.06564 | 3602 ft | 157 kts | 80° |
| 2026-04-21 09:49 | 54.93666 | 73.08356 | 3591 ft | 148 kts | 80° |
| 2026-04-21 09:49 | 54.93894 | 73.10076 | 3602 ft | 144 kts | 79° |
| 2026-04-21 09:49 | 54.94122 | 73.11765 | 3570 ft | 143 kts | 79° |
| 2026-04-21 09:50 | 54.94368 | 73.13504 | 3115 ft | 153 kts | 78° |
| 2026-04-21 09:50 | 54.94452 | 73.14114 | 2963 ft | 155 kts | 78° |
| 2026-04-21 09:50 | 54.95111 | 73.18984 | 2080 ft | 151 kts | 76° |
| 2026-04-21 09:51 | 54.95367 | 73.20778 | 1701 ft | 150 kts | 78° |
| 2026-04-21 09:51 | 54.95579 | 73.22524 | 1328 ft | 147 kts | 79° |
| 2026-04-21 09:51 | 54.95783 | 73.24219 | 1017 ft | 141 kts | 76° |
| 2026-04-21 09:51 | 54.96011 | 73.25843 | 727 ft | 135 kts | 75° |
| 2026-04-21 09:52 | 54.96222 | 73.27381 | 560 ft | 132 kts | 76° |
| 2026-04-21 09:52 | 54.96438 | 73.28952 | 398 ft | 131 kts | 76° |
| 2026-04-21 09:52 | 54.96630 | 73.30398 | 314 ft | 113 kts | 77° |
| 2026-04-21 09:52 | 54.96750 | 73.31299 | 304 ft | 56 kts | 78° |
| 2026-04-21 09:53 | 54.96825 | 73.31848 | 307 ft | 22 kts | 77° |
| 2026-04-21 09:53 | 54.96825 | 73.32054 | 310 ft | 14 kts | 146° |
| 2026-04-21 09:53 | 54.96721 | 73.32114 | 306 ft | 17 kts | 166° |
| 2026-04-21 09:53 | 54.96593 | 73.32166 | 303 ft | 21 kts | 167° |
| 2026-04-21 09:54 | 54.96503 | 73.32202 | 299 ft | 10 kts | 167° |
| 2026-04-21 09:54 | 54.96435 | 73.32230 | 301 ft | 10 kts | 167° |
| 2026-04-21 09:54 | 54.96376 | 73.32222 | 298 ft | 8 kts | 208° |
| 2026-04-21 09:54 | 54.96333 | 73.32169 | 301 ft | 7 kts | 216° |
| 2026-04-21 09:55 | 54.96298 | 73.32118 | 299 ft | 6 kts | 231° |
| 2026-04-21 09:55 | 54.96300 | 73.32052 | 299 ft | 5 kts | 298° |
| 2026-04-21 09:55 | 54.96330 | 73.31998 | 299 ft | 9 kts | 316° |
| 2026-04-21 09:55 | 54.96378 | 73.31974 | 301 ft | 6 kts | 36° |
| 2026-04-21 09:56 | 54.96373 | 73.32021 | 301 ft | 0 kts | 135° |
| 2026-04-21 09:56 | 54.96360 | 73.32038 | 299 ft | 3 kts | 140° |
| 2026-04-21 09:56 | 54.96355 | 73.32047 | 299 ft | 0 kts | 138° |
| 2026-04-21 09:57 | 54.96353 | 73.32050 | 300 ft | 0 kts | 135° |